Time;durP1;ratioP1;P1;durP2;ratioP2;P2;SDS_P1;SDS_P2;PMS_P1;PMS_P2;Temp;Humidity;BMP_temperature;BMP_pressure;BME280_temperature;BME280_humidity;BME280_pressure;Samples;Min_cycle;Max_cycle;Signal;HPM_P1;HPM_P2
2021/05/24 00:02:13;;;;;;;2.28;1.88;;;12.70;99.90;;;;;;5070406;28;20447;-85
2021/05/24 00:04:39;;;;;;;4.00;2.03;;;12.40;99.90;;;;;;5063550;28;20021;-86
2021/05/24 00:07:06;;;;;;;4.22;1.80;;;12.30;1.00;;;;;;5065759;28;20035;-86
2021/05/24 00:09:32;;;;;;;3.22;1.90;;;12.30;1.00;;;;;;5053473;28;20021;-85
2021/05/24 00:11:59;;;;;;;3.45;1.80;;;12.40;1.00;;;;;;5072670;28;20031;-85
2021/05/24 00:14:26;;;;;;;4.18;2.05;;;12.40;1.00;;;;;;5067441;28;20041;-85
2021/05/24 00:16:52;;;;;;;3.25;1.90;;;12.40;99.90;;;;;;5072127;28;20024;-86
2021/05/24 00:19:18;;;;;;;2.70;1.83;;;12.30;1.00;;;;;;5074310;28;20029;-85
2021/05/24 00:21:43;;;;;;;4.72;2.10;;;12.30;1.00;;;;;;5074292;28;20499;-85
2021/05/24 00:24:09;;;;;;;2.50;1.92;;;12.30;1.00;;;;;;5074029;28;20032;-86
2021/05/24 00:26:35;;;;;;;2.40;1.85;;;12.20;1.00;;;;;;5073777;28;20048;-86
2021/05/24 00:29:01;;;;;;;4.82;2.13;;;12.20;1.00;;;;;;5073069;28;20025;-86
2021/05/24 00:31:26;;;;;;;3.47;1.85;;;12.40;1.00;;;;;;5071660;28;20123;-85
2021/05/24 00:33:52;;;;;;;4.38;2.17;;;12.30;1.00;;;;;;5070573;28;20101;-86
2021/05/24 00:36:18;;;;;;;3.55;2.15;;;12.30;1.00;;;;;;5073673;28;20056;-85
2021/05/24 00:38:43;;;;;;;5.07;2.65;;;12.30;1.00;;;;;;5087266;28;20489;-85
2021/05/24 00:41:09;;;;;;;4.10;1.77;;;12.20;1.00;;;;;;5070371;28;20035;-86
2021/05/24 00:43:35;;;;;;;4.05;2.20;;;12.30;1.00;;;;;;5072478;28;20103;-86
2021/05/24 00:46:01;;;;;;;4.78;2.08;;;12.30;1.00;;;;;;5071877;28;20120;-85
2021/05/24 00:48:29;;;;;;;3.63;2.20;;;12.20;1.00;;;;;;5072730;28;20058;-85
2021/05/24 00:50:55;;;;;;;4.10;2.13;;;12.20;1.00;;;;;;5072184;28;20036;-85
2021/05/24 00:53:20;;;;;;;4.13;2.17;;;12.10;1.00;;;;;;5071597;28;20037;-85
2021/05/24 00:55:46;;;;;;;2.90;2.13;;;12.20;1.00;;;;;;5070335;28;20400;-85
2021/05/24 00:58:12;;;;;;;3.63;2.17;;;12.10;1.00;;;;;;5066436;28;20033;-85
2021/05/24 01:00:42;;;;;;;4.20;2.30;;;12.20;1.00;;;;;;5070097;28;20035;-85
2021/05/24 01:03:09;;;;;;;2.78;2.13;;;12.10;1.00;;;;;;5072972;28;20062;-85
2021/05/24 01:05:35;;;;;;;4.45;2.15;;;12.40;1.00;;;;;;5071677;28;20039;-85
2021/05/24 01:08:02;;;;;;;3.65;1.90;;;12.60;1.00;;;;;;5071645;28;20051;-85
2021/05/24 01:10:28;;;;;;;2.65;1.85;;;12.20;1.00;;;;;;5066243;28;20028;-85
2021/05/24 01:12:54;;;;;;;5.38;2.42;;;12.30;1.00;;;;;;5069926;28;20116;-86
2021/05/24 01:15:20;;;;;;;4.63;2.50;;;12.50;1.00;;;;;;5071201;28;20523;-85
2021/05/24 01:17:46;;;;;;;4.03;2.25;;;12.20;1.00;;;;;;5072040;28;20078;-85
2021/05/24 01:20:12;;;;;;;4.75;2.20;;;12.20;1.00;;;;;;5072310;28;20455;-85
2021/05/24 01:22:41;;;;;;;4.35;2.20;;;12.30;1.00;;;;;;5072646;28;20076;-85
2021/05/24 01:25:08;;;;;;;3.92;2.20;;;12.20;1.00;;;;;;5071568;28;20040;-85
2021/05/24 01:27:34;;;;;;;4.53;2.03;;;12.10;1.00;;;;;;5071894;28;20477;-85
2021/05/24 01:30:00;;;;;;;3.65;1.90;;;12.20;1.00;;;;;;5071399;28;20027;-85
2021/05/24 01:32:26;;;;;;;4.20;1.77;;;12.20;1.00;;;;;;5071190;28;20460;-86
2021/05/24 01:34:54;;;;;;;2.47;1.73;;;12.10;1.00;;;;;;5070802;28;20036;-85
2021/05/24 01:37:20;;;;;;;3.53;1.88;;;12.40;1.00;;;;;;5070877;28;20443;-85
2021/05/24 01:39:46;;;;;;;3.70;1.80;;;12.00;1.00;;;;;;5072445;28;20564;-86
2021/05/24 01:42:12;;;;;;;4.53;2.00;;;12.00;1.00;;;;;;5073190;28;20122;-86
2021/05/24 01:44:39;;;;;;;3.55;2.30;;;12.10;1.00;;;;;;5068479;28;20128;-85
2021/05/24 01:47:05;;;;;;;2.40;1.80;;;12.10;1.00;;;;;;5069191;28;20086;-85
2021/05/24 01:49:46;;;;;;;4.43;2.47;;;12.10;1.00;;;;;;5070814;28;20016;-86
2021/05/24 01:52:17;;;;;;;3.70;2.10;;;12.10;99.90;;;;;;5071464;28;20032;-86
2021/05/24 01:54:44;;;;;;;3.80;2.08;;;12.20;1.00;;;;;;5054004;28;20111;-85
2021/05/24 01:57:11;;;;;;;2.72;2.08;;;12.10;1.00;;;;;;5071616;28;20044;-85
2021/05/24 01:59:38;;;;;;;2.88;1.95;;;12.20;1.00;;;;;;5070420;28;20025;-86
2021/05/24 02:02:04;;;;;;;2.47;2.00;;;12.20;1.00;;;;;;5069573;28;20115;-85
2021/05/24 02:04:30;;;;;;;3.65;2.20;;;12.20;1.00;;;;;;5070692;28;20032;-86
2021/05/24 02:06:57;;;;;;;3.33;1.80;;;12.30;1.00;;;;;;5070614;28;20036;-85
2021/05/24 02:09:23;;;;;;;5.18;2.45;;;12.30;1.00;;;;;;5071543;28;20028;-85
2021/05/24 02:11:49;;;;;;;5.00;2.05;;;12.20;1.00;;;;;;5071426;28;20063;-85
2021/05/24 02:14:15;;;;;;;3.80;1.80;;;12.20;1.00;;;;;;5069825;28;20071;-85
2021/05/24 02:16:43;;;;;;;2.50;2.00;;;12.30;1.00;;;;;;5070650;28;20093;-85
2021/05/24 02:19:10;;;;;;;1.65;1.52;;;12.30;1.00;;;;;;5070374;28;20028;-85
2021/05/24 02:21:36;;;;;;;5.82;1.77;;;12.80;1.00;;;;;;5070319;28;20484;-85
2021/05/24 02:24:07;;;;;;;3.17;1.65;;;12.40;1.00;;;;;;5072339;28;20059;-85
2021/05/24 02:26:33;;;;;;;2.92;1.60;;;12.50;1.00;;;;;;5069194;28;20026;-85
2021/05/24 02:28:59;;;;;;;2.75;1.63;;;12.60;1.00;;;;;;5069284;28;20090;-85
2021/05/24 02:31:25;;;;;;;2.92;1.45;;;12.70;1.00;;;;;;5068245;28;20515;-85
2021/05/24 02:33:51;;;;;;;2.03;1.55;;;12.40;99.90;;;;;;5068729;28;20041;-84
2021/05/24 02:36:16;;;;;;;2.03;1.40;;;12.40;99.90;;;;;;5071689;28;20027;-85
2021/05/24 02:38:42;;;;;;;2.85;1.52;;;12.70;99.90;;;;;;5069081;28;20523;-86
2021/05/24 02:41:08;;;;;;;1.70;1.20;;;12.50;99.90;;;;;;5070063;28;20548;-85
2021/05/24 02:43:34;;;;;;;1.92;1.40;;;12.40;99.90;;;;;;5071460;28;20067;-85
2021/05/24 02:45:59;;;;;;;1.90;1.33;;;12.40;99.90;;;;;;5069932;28;20593;-85
2021/05/24 02:48:25;;;;;;;2.38;1.23;;;12.40;99.90;;;;;;5071413;28;20025;-85
2021/05/24 02:50:51;;;;;;;1.88;1.48;;;12.40;99.90;;;;;;5072000;28;20406;-85
2021/05/24 02:53:16;;;;;;;3.13;1.48;;;12.40;99.90;;;;;;5069966;28;20508;-85
2021/05/24 02:55:42;;;;;;;2.00;1.35;;;12.40;99.90;;;;;;5069501;28;20031;-86
2021/05/24 02:58:08;;;;;;;3.08;1.67;;;12.50;99.90;;;;;;5070000;28;20031;-85
2021/05/24 03:00:33;;;;;;;2.13;1.40;;;12.50;99.90;;;;;;5070048;28;20078;-85
2021/05/24 03:02:59;;;;;;;3.30;1.45;;;12.50;1.00;;;;;;5071851;28;20024;-85
2021/05/24 03:05:25;;;;;;;2.25;1.35;;;12.50;99.90;;;;;;5063655;28;20060;-86
2021/05/24 03:07:52;;;;;;;2.47;1.35;;;12.50;99.90;;;;;;5068833;28;20166;-85
2021/05/24 03:10:22;;;;;;;3.90;1.70;;;12.60;1.00;;;;;;5069068;28;20056;-85
2021/05/24 03:12:48;;;;;;;3.83;1.80;;;12.80;1.00;;;;;;5069607;28;20481;-85
2021/05/24 03:15:15;;;;;;;4.10;1.65;;;12.40;1.00;;;;;;5071452;28;20405;-85
2021/05/24 03:17:41;;;;;;;3.92;2.00;;;12.50;1.00;;;;;;5070420;28;20066;-85
2021/05/24 03:20:09;;;;;;;1.98;1.58;;;12.50;1.00;;;;;;5067408;28;20093;-85
2021/05/24 03:22:35;;;;;;;3.00;1.80;;;12.40;1.00;;;;;;5069659;28;20107;-85
2021/05/24 03:25:02;;;;;;;2.53;1.80;;;12.50;1.00;;;;;;5069041;28;20029;-85
2021/05/24 03:27:28;;;;;;;3.92;2.00;;;12.40;1.00;;;;;;5071186;28;20054;-85
2021/05/24 03:29:54;;;;;;;2.15;1.73;;;12.30;1.00;;;;;;5068924;28;20040;-85
2021/05/24 03:32:20;;;;;;;6.15;2.33;;;12.30;1.00;;;;;;5069013;28;20044;-85
2021/05/24 03:34:45;;;;;;;4.38;2.00;;;12.90;1.00;;;;;;5069482;28;20408;-85
2021/05/24 03:37:11;;;;;;;2.78;1.95;;;12.40;1.00;;;;;;5070847;28;20055;-85
2021/05/24 03:39:37;;;;;;;2.28;1.90;;;12.70;1.00;;;;;;5069005;28;20032;-85
2021/05/24 03:42:02;;;;;;;3.05;2.13;;;12.40;1.00;;;;;;5070264;28;20025;-85
2021/05/24 03:44:28;;;;;;;4.53;2.40;;;12.40;1.00;;;;;;5072488;28;20485;-85
2021/05/24 03:46:54;;;;;;;2.80;1.77;;;12.40;1.00;;;;;;5073030;28;20477;-85
2021/05/24 03:49:20;;;;;;;2.80;1.83;;;12.50;1.00;;;;;;5073391;28;20115;-85
2021/05/24 03:51:45;;;;;;;4.57;1.90;;;12.50;1.00;;;;;;5071915;28;20044;-85
2021/05/24 03:54:11;;;;;;;4.05;1.90;;;12.50;1.00;;;;;;5054470;28;20513;-86
2021/05/24 03:56:36;;;;;;;4.15;1.42;;;12.60;1.00;;;;;;5071661;28;20025;-85
2021/05/24 03:59:03;;;;;;;3.25;1.80;;;12.60;1.00;;;;;;5072552;28;20457;-85
2021/05/24 04:01:29;;;;;;;2.45;1.98;;;12.60;1.00;;;;;;5072803;28;20048;-86
2021/05/24 04:03:55;;;;;;;3.35;1.95;;;12.50;1.00;;;;;;5073243;28;20052;-85
2021/05/24 04:06:24;;;;;;;3.28;2.10;;;12.50;1.00;;;;;;5074254;28;20397;-86
2021/05/24 04:08:50;;;;;;;2.63;2.20;;;12.50;1.00;;;;;;5087199;28;20135;-85
2021/05/24 04:11:15;;;;;;;3.53;2.10;;;12.40;1.00;;;;;;5069874;28;20111;-85
2021/05/24 04:13:46;;;;;;;2.78;2.00;;;12.60;1.00;;;;;;5072539;28;20036;-85
2021/05/24 04:16:12;;;;;;;4.57;1.90;;;12.50;1.00;;;;;;5072725;28;20043;-85
2021/05/24 04:18:42;;;;;;;4.18;1.92;;;12.60;1.00;;;;;;5073066;28;20028;-85
2021/05/24 04:21:08;;;;;;;4.10;1.80;;;12.60;1.00;;;;;;5074356;28;20033;-85
2021/05/24 04:23:33;;;;;;;4.70;2.28;;;12.60;1.00;;;;;;5056307;28;20551;-85
2021/05/24 04:25:59;;;;;;;2.75;1.50;;;12.50;1.00;;;;;;5066401;28;20036;-85
2021/05/24 04:28:25;;;;;;;3.80;1.55;;;12.70;1.00;;;;;;5070799;28;20024;-85
2021/05/24 04:30:50;;;;;;;4.53;1.50;;;12.60;1.00;;;;;;5072754;28;20162;-85
2021/05/24 04:33:16;;;;;;;1.58;1.40;;;12.70;1.00;;;;;;5074353;28;20150;-85
2021/05/24 04:35:42;;;;;;;4.75;1.65;;;13.10;1.00;;;;;;5069276;28;20058;-85
2021/05/24 04:38:07;;;;;;;4.88;1.88;;;12.70;1.00;;;;;;5071729;28;20040;-85
2021/05/24 04:40:33;;;;;;;1.98;1.50;;;12.80;1.00;;;;;;5071364;28;20036;-85
2021/05/24 04:42:59;;;;;;;2.70;1.73;;;12.80;1.00;;;;;;5069212;28;20045;-85
2021/05/24 04:45:25;;;;;;;2.92;1.73;;;12.70;1.00;;;;;;5086833;28;20078;-85
2021/05/24 04:47:51;;;;;;;2.80;1.50;;;12.70;1.00;;;;;;5071297;28;20063;-85
2021/05/24 04:50:17;;;;;;;3.25;1.50;;;12.80;1.00;;;;;;5071818;28;20059;-85
2021/05/24 04:52:43;;;;;;;2.88;1.50;;;12.80;1.00;;;;;;5071433;28;20025;-86
2021/05/24 04:55:12;;;;;;;2.25;1.92;;;12.80;1.00;;;;;;5073411;28;20036;-88
2021/05/24 04:57:37;;;;;;;3.65;1.40;;;12.90;1.00;;;;;;5074042;28;20036;-87
2021/05/24 05:00:06;;;;;;;3.53;1.52;;;12.90;1.00;;;;;;5074253;28;20028;-86
2021/05/24 05:02:32;;;;;;;3.83;1.80;;;13.00;1.00;;;;;;5071728;28;20547;-85
2021/05/24 05:04:57;;;;;;;4.32;1.85;;;12.90;1.00;;;;;;5071773;28;20036;-85
2021/05/24 05:07:23;;;;;;;2.88;1.30;;;13.00;1.00;;;;;;5071793;28;20024;-85
2021/05/24 05:09:48;;;;;;;3.83;1.70;;;13.00;1.00;;;;;;5073394;28;20043;-87
2021/05/24 05:12:14;;;;;;;2.58;1.48;;;13.10;1.00;;;;;;5073837;28;20378;-85
2021/05/24 05:14:40;;;;;;;4.35;1.40;;;13.00;1.00;;;;;;5069514;28;20113;-85
2021/05/24 05:17:05;;;;;;;2.95;1.35;;;13.20;1.00;;;;;;5072762;28;20035;-86
2021/05/24 05:19:31;;;;;;;2.67;1.45;;;13.20;1.00;;;;;;5071725;28;20070;-86
2021/05/24 05:21:57;;;;;;;2.22;1.20;;;13.20;1.00;;;;;;5070642;28;20017;-86
2021/05/24 05:24:22;;;;;;;3.55;1.23;;;13.20;1.00;;;;;;5072978;28;20059;-85
2021/05/24 05:26:48;;;;;;;2.10;1.40;;;13.30;1.00;;;;;;5071151;28;20135;-89
2021/05/24 05:29:14;;;;;;;1.80;1.08;;;13.30;1.00;;;;;;5064272;28;20033;-86
2021/05/24 05:31:40;;;;;;;2.35;1.20;;;13.30;1.00;;;;;;5065513;28;20048;-86
2021/05/24 05:34:05;;;;;;;2.63;1.35;;;13.30;1.00;;;;;;5065428;28;20087;-87
2021/05/24 05:36:32;;;;;;;3.63;1.42;;;13.40;1.00;;;;;;5067628;28;20029;-85
2021/05/24 05:38:58;;;;;;;3.42;1.60;;;13.40;1.00;;;;;;5072886;28;20090;-85
2021/05/24 05:41:24;;;;;;;4.13;1.88;;;13.30;1.00;;;;;;5069956;28;20031;-85
2021/05/24 05:43:49;;;;;;;5.32;1.80;;;13.40;1.00;;;;;;5069769;28;20111;-85
2021/05/24 05:46:15;;;;;;;2.10;1.80;;;13.30;1.00;;;;;;5068713;28;20483;-84
2021/05/24 05:48:40;;;;;;;3.42;1.55;;;13.30;1.00;;;;;;5070185;28;20029;-85
2021/05/24 05:51:06;;;;;;;6.35;1.80;;;13.50;1.00;;;;;;5071502;28;20016;-85
2021/05/24 05:53:32;;;;;;;4.78;1.63;;;13.30;1.00;;;;;;5069436;28;20036;-86
2021/05/24 05:55:59;;;;;;;2.80;1.92;;;13.40;1.00;;;;;;5070732;28;20028;-86
2021/05/24 05:58:24;;;;;;;2.38;1.88;;;13.50;1.00;;;;;;5070491;28;20103;-85
2021/05/24 06:00:50;;;;;;;3.00;1.77;;;13.50;1.00;;;;;;5068942;28;20125;-84
2021/05/24 06:03:16;;;;;;;6.28;1.73;;;13.60;1.00;;;;;;5071803;28;20052;-84
2021/05/24 06:05:42;;;;;;;2.90;1.98;;;13.70;1.00;;;;;;5071179;28;20070;-85
2021/05/24 06:08:07;;;;;;;3.67;1.88;;;13.80;1.00;;;;;;5070382;28;20036;-86
2021/05/24 06:10:33;;;;;;;2.95;1.92;;;13.80;1.00;;;;;;5071748;28;20024;-86
2021/05/24 06:13:00;;;;;;;3.45;2.10;;;13.60;1.00;;;;;;5070239;28;20040;-85
2021/05/24 06:15:26;;;;;;;4.13;2.00;;;13.60;1.00;;;;;;5070718;28;20032;-85
2021/05/24 06:17:52;;;;;;;2.63;1.88;;;14.00;1.00;;;;;;5071453;28;20033;-85
2021/05/24 06:20:18;;;;;;;3.13;1.80;;;14.20;1.00;;;;;;5069524;28;20033;-86
2021/05/24 06:22:44;;;;;;;2.05;1.77;;;13.80;1.00;;;;;;5070385;28;20025;-84
2021/05/24 06:25:10;;;;;;;3.67;1.70;;;13.80;1.00;;;;;;5066690;28;20036;-86
2021/05/24 06:27:37;;;;;;;6.00;2.00;;;14.00;1.00;;;;;;5068703;28;20033;-85
2021/05/24 06:30:07;;;;;;;2.42;1.80;;;13.90;1.00;;;;;;5070483;28;20021;-85
2021/05/24 06:32:33;;;;;;;4.70;2.35;;;13.90;1.00;;;;;;5067575;28;20052;-84
2021/05/24 06:35:00;;;;;;;5.13;2.42;;;13.90;1.00;;;;;;5068851;28;20118;-86
2021/05/24 06:37:25;;;;;;;4.20;2.92;;;14.00;1.00;;;;;;5069915;28;20030;-86
2021/05/24 06:39:51;;;;;;;5.25;2.50;;;14.10;1.00;;;;;;5069678;28;20107;-86
2021/05/24 06:42:17;;;;;;;5.13;2.55;;;14.50;1.00;;;;;;5070896;28;20389;-86
2021/05/24 06:44:43;;;;;;;4.85;2.60;;;14.20;1.00;;;;;;5066783;28;20020;-86
2021/05/24 06:47:09;;;;;;;4.22;2.53;;;14.30;1.00;;;;;;5066902;28;20484;-85
2021/05/24 06:49:35;;;;;;;6.13;2.05;;;14.40;1.00;;;;;;5069447;28;20016;-86
2021/05/24 06:52:03;;;;;;;5.55;2.08;;;14.50;1.00;;;;;;5069340;28;20516;-91
2021/05/24 06:54:28;;;;;;;4.88;2.38;;;14.50;1.00;;;;;;5070461;28;20037;-89
2021/05/24 06:56:54;;;;;;;5.45;1.70;;;14.60;99.90;;;;;;5071626;28;20025;-90
2021/05/24 06:59:20;;;;;;;3.00;2.00;;;14.90;99.90;;;;;;5069370;28;20493;-87
2021/05/24 07:01:46;;;;;;;3.67;2.15;;;15.10;99.90;;;;;;5069933;28;20101;-90
2021/05/24 07:04:12;;;;;;;2.00;1.80;;;15.20;99.90;;;;;;5070075;28;20497;-91
2021/05/24 07:06:37;;;;;;;4.65;2.00;;;15.90;99.90;;;;;;5070742;28;20583;-89
2021/05/24 07:09:04;;;;;;;6.28;2.40;;;15.40;99.90;;;;;;5069473;28;20477;-89
2021/05/24 07:11:29;;;;;;;3.30;2.08;;;15.40;99.90;;;;;;5070235;28;20123;-92
2021/05/24 07:13:55;;;;;;;3.97;1.80;;;15.70;99.90;;;;;;5069079;28;20210;-93
2021/05/24 07:16:20;;;;;;;3.05;2.10;;;15.90;99.90;;;;;;5070154;28;20029;-90
2021/05/24 07:18:46;;;;;;;2.80;1.90;;;15.90;99.90;;;;;;5071087;28;20485;-89
2021/05/24 07:21:12;;;;;;;5.30;2.30;;;16.00;99.90;;;;;;5074605;28;20024;-88
2021/05/24 07:23:37;;;;;;;3.67;1.90;;;15.60;99.90;;;;;;5073402;28;20065;-85
2021/05/24 07:26:03;;;;;;;2.83;1.92;;;15.90;99.90;;;;;;5073474;28;20397;-87
2021/05/24 07:28:29;;;;;;;4.10;2.47;;;16.00;99.90;;;;;;5074230;28;20540;-89
2021/05/24 07:30:54;;;;;;;2.42;1.80;;;15.70;99.90;;;;;;5073955;28;20033;-90
2021/05/24 07:33:20;;;;;;;4.75;1.80;;;15.80;99.90;;;;;;5077897;28;20123;-91
2021/05/24 07:35:46;;;;;;;6.15;2.40;;;16.10;99.90;;;;;;5073794;28;20456;-93
2021/05/24 07:38:11;;;;;;;3.05;1.80;;;16.10;99.90;;;;;;5073333;28;20032;-92
2021/05/24 07:40:37;;;;;;;5.18;2.53;;;16.30;99.90;;;;;;5075868;28;20046;-92
2021/05/24 07:43:03;;;;;;;3.20;2.10;;;16.60;99.90;;;;;;5074682;28;20020;-91
2021/05/24 07:45:29;;;;;;;5.28;2.00;;;16.70;99.90;;;;;;5074487;28;20500;-87
2021/05/24 07:47:55;;;;;;;3.10;1.60;;;16.80;99.90;;;;;;5055669;28;20090;-88
2021/05/24 07:50:20;;;;;;;2.35;1.55;;;17.10;99.90;;;;;;5071703;28;20457;-89
2021/05/24 07:52:46;;;;;;;3.92;1.50;;;17.20;99.90;;;;;;5068826;28;20442;-89
2021/05/24 07:55:12;;;;;;;1.85;1.35;;;17.30;99.90;;;;;;5072403;28;20070;-95
2021/05/24 07:57:39;;;;;;;2.75;1.30;;;16.70;99.90;;;;;;5072797;28;20017;-85
2021/05/24 08:00:10;;;;;;;3.10;1.00;;;16.70;99.90;;;;;;5073402;28;20504;-86
2021/05/24 08:02:40;;;;;;;6.05;1.60;;;16.70;99.90;;;;;;5072231;28;20021;-86
2021/05/24 08:05:08;;;;;;;1.92;1.30;;;16.90;99.90;;;;;;5072517;28;20101;-86
2021/05/24 08:07:35;;;;;;;5.05;1.75;;;17.10;99.90;;;;;;5071854;28;20373;-86
2021/05/24 08:10:00;;;;;;;1.70;1.10;;;17.20;99.90;;;;;;5072860;28;20056;-86
2021/05/24 08:12:26;;;;;;;2.83;1.45;;;17.00;99.90;;;;;;5073385;28;20079;-86
2021/05/24 08:14:52;;;;;;;3.80;1.40;;;17.00;99.90;;;;;;5072721;28;20036;-87
2021/05/24 08:17:18;;;;;;;2.47;1.48;;;17.50;99.90;;;;;;5073303;28;20017;-86
2021/05/24 08:19:44;;;;;;;1.38;1.10;;;17.70;99.90;;;;;;5071859;28;20511;-87
2021/05/24 08:22:10;;;;;;;2.58;1.27;;;17.40;99.90;;;;;;5070788;28;20538;-86
2021/05/24 08:24:35;;;;;;;4.63;1.48;;;17.20;99.90;;;;;;5070831;28;20025;-86
2021/05/24 08:27:01;;;;;;;2.08;1.30;;;17.50;99.90;;;;;;5072559;28;20071;-86
2021/05/24 08:29:27;;;;;;;4.47;1.50;;;17.30;99.90;;;;;;5071028;28;20104;-86
2021/05/24 08:31:52;;;;;;;5.20;1.60;;;17.40;99.90;;;;;;5070493;28;20068;-86
2021/05/24 08:34:18;;;;;;;4.13;2.00;;;18.10;99.90;;;;;;5072161;28;20035;-87
2021/05/24 08:36:43;;;;;;;4.50;1.70;;;18.40;99.90;;;;;;5071780;28;20401;-86
2021/05/24 08:39:09;;;;;;;5.95;1.70;;;18.40;99.90;;;;;;5073850;28;20480;-86
2021/05/24 08:41:35;;;;;;;4.05;1.60;;;18.50;99.90;;;;;;5071842;28;20056;-86
2021/05/24 08:44:01;;;;;;;2.92;1.73;;;19.00;99.90;;;;;;5071953;28;20110;-86
2021/05/24 08:46:27;;;;;;;3.47;1.70;;;18.70;99.90;;;;;;5072074;28;20032;-86
2021/05/24 08:48:53;;;;;;;4.10;1.63;;;18.80;99.90;;;;;;5069906;28;20028;-87
2021/05/24 08:51:19;;;;;;;5.00;1.50;;;18.80;99.90;;;;;;5073485;28;20020;-87
2021/05/24 08:53:45;;;;;;;3.13;1.55;;;19.00;99.90;;;;;;5071923;28;20043;-86
2021/05/24 08:56:10;;;;;;;5.95;1.77;;;18.60;99.90;;;;;;5071757;28;20437;-86
2021/05/24 08:58:36;;;;;;;5.28;1.80;;;19.00;99.90;;;;;;5071395;28;20017;-86
2021/05/24 09:01:03;;;;;;;3.55;1.35;;;19.10;99.90;;;;;;5070218;28;20108;-86
2021/05/24 09:03:34;;;;;;;4.28;1.90;;;18.70;99.90;;;;;;5072059;28;20062;-87
2021/05/24 09:06:02;;;;;;;2.72;1.60;;;18.70;99.90;;;;;;5087080;28;20028;-87
2021/05/24 09:08:36;;;;;;;2.88;1.30;;;18.80;99.90;;;;;;5071744;28;20438;-86
2021/05/24 09:11:02;;;;;;;1.88;1.17;;;18.10;99.90;;;;;;5071325;28;20044;-86
2021/05/24 09:13:31;;;;;;;3.50;1.27;;;18.10;99.90;;;;;;5069968;28;20021;-86
2021/05/24 09:15:58;;;;;;;2.97;1.60;;;17.90;99.90;;;;;;5071324;28;20417;-88
2021/05/24 09:18:24;;;;;;;3.72;1.70;;;18.00;99.90;;;;;;5072625;28;20017;-87
2021/05/24 09:20:50;;;;;;;4.70;1.50;;;17.90;99.90;;;;;;5072238;28;20021;-87
2021/05/24 09:23:28;;;;;;;2.83;1.27;;;17.90;99.90;;;;;;5071159;28;20104;-86
2021/05/24 09:26:07;;;;;;;5.22;1.67;;;17.90;99.90;;;;;;5071158;28;20032;-86
2021/05/24 09:28:51;;;;;;;4.03;1.25;;;17.80;99.90;;;;;;5070744;28;20024;-88
2021/05/24 09:31:24;;;;;;;2.72;1.23;;;18.10;99.90;;;;;;5071135;28;20032;-87
2021/05/24 09:33:59;;;;;;;2.33;1.38;;;18.10;99.90;;;;;;5055765;28;20040;-87
2021/05/24 09:36:26;;;;;;;3.38;1.75;;;18.30;99.90;;;;;;5071849;28;20041;-86
2021/05/24 09:38:58;;;;;;;1.80;1.38;;;18.70;99.90;;;;;;5071991;28;20025;-88
2021/05/24 09:41:24;;;;;;;4.95;1.77;;;18.40;99.90;;;;;;5070561;28;20032;-87
2021/05/24 09:43:54;;;;;;;3.08;1.67;;;18.40;99.90;;;;;;5068234;28;20039;-87
2021/05/24 09:46:29;;;;;;;7.13;1.88;;;18.30;99.90;;;;;;5071366;28;20062;-86
2021/05/24 09:49:03;;;;;;;2.38;1.60;;;18.30;99.90;;;;;;5069854;28;20067;-87
2021/05/24 09:51:31;;;;;;;4.65;1.50;;;18.30;99.90;;;;;;5069727;28;20077;-86
2021/05/24 09:54:14;;;;;;;1.77;1.30;;;18.20;99.90;;;;;;5070513;28;20028;-87
2021/05/24 09:56:44;;;;;;;3.97;1.45;;;18.30;99.90;;;;;;5070651;28;20086;-86
2021/05/24 09:59:13;;;;;;;2.58;1.45;;;18.40;99.90;;;;;;5070609;28;20078;-87
2021/05/24 10:01:43;;;;;;;4.43;1.60;;;18.30;99.90;;;;;;5070142;28;20060;-87
2021/05/24 10:04:12;;;;;;;4.22;1.60;;;18.40;99.90;;;;;;5070750;28;20028;-86
2021/05/24 10:06:38;;;;;;;2.72;1.70;;;18.60;99.90;;;;;;5070431;28;20116;-87
2021/05/24 10:09:05;;;;;;;2.97;1.58;;;19.00;99.90;;;;;;5072346;28;20028;-85
2021/05/24 10:11:32;;;;;;;2.83;1.83;;;18.90;99.90;;;;;;5069695;28;20066;-86
2021/05/24 10:13:58;;;;;;;3.53;1.55;;;18.90;99.90;;;;;;5070124;28;20064;-86
2021/05/24 10:16:32;;;;;;;5.38;2.22;;;18.80;99.90;;;;;;5070208;28;20055;-85
2021/05/24 10:18:57;;;;;;;3.72;1.73;;;18.90;99.90;;;;;;5069004;28;20024;-83
2021/05/24 10:21:25;;;;;;;3.90;1.55;;;19.10;99.90;;;;;;5070765;28;20029;-85
2021/05/24 10:23:51;;;;;;;4.03;1.60;;;19.60;99.90;;;;;;5069327;28;20473;-83
2021/05/24 10:26:19;;;;;;;3.05;1.40;;;19.20;99.90;;;;;;5069397;28;20024;-86
2021/05/24 10:28:47;;;;;;;2.33;1.27;;;19.10;99.90;;;;;;5070009;28;20028;-85
2021/05/24 10:31:20;;;;;;;2.55;1.20;;;19.40;99.90;;;;;;5070344;28;20102;-86
2021/05/24 10:33:49;;;;;;;2.47;1.38;;;19.30;99.90;;;;;;5053940;28;20025;-85
2021/05/24 10:36:32;;;;;;;2.72;1.30;;;19.00;99.90;;;;;;5051610;28;20027;-85
2021/05/24 10:39:25;;;;;;;2.75;1.13;;;18.90;99.90;;;;;;5069558;28;20520;-85
2021/05/24 10:42:01;;;;;;;2.75;1.20;;;19.10;99.90;;;;;;5069093;28;20552;-86
2021/05/24 10:44:40;;;;;;;2.33;1.17;;;19.20;99.90;;;;;;5066822;28;20396;-83
2021/05/24 10:47:23;;;;;;;5.07;1.58;;;19.20;99.90;;;;;;5069737;28;20440;-85
2021/05/24 10:49:53;;;;;;;4.00;1.30;;;19.40;99.90;;;;;;5070116;28;20573;-89
2021/05/24 10:52:18;;;;;;;2.58;1.35;;;19.20;99.90;;;;;;5069112;28;20020;-89
2021/05/24 10:54:44;;;;;;;3.72;1.13;;;19.00;99.90;;;;;;5067933;28;20037;-84
2021/05/24 10:57:13;;;;;;;1.73;1.08;;;18.90;99.90;;;;;;5071688;28;20029;-85
2021/05/24 10:59:39;;;;;;;3.20;1.25;;;18.90;99.90;;;;;;5067521;28;20020;-83
2021/05/24 11:02:23;;;;;;;2.55;1.20;;;18.80;99.90;;;;;;5067398;28;20089;-83
2021/05/24 11:04:56;;;;;;;2.63;1.20;;;19.20;99.90;;;;;;5069860;28;20032;-85
2021/05/24 11:07:22;;;;;;;1.85;1.08;;;19.80;99.90;;;;;;5069516;28;20027;-85
2021/05/24 11:09:48;;;;;;;2.13;1.15;;;19.20;99.90;;;;;;5067139;28;20029;-86
2021/05/24 11:12:13;;;;;;;2.03;1.50;;;19.40;99.90;;;;;;5070972;28;20028;-88
2021/05/24 11:15:05;;;;;;;3.22;1.23;;;19.60;99.90;;;;;;5069774;28;20412;-88
2021/05/24 11:17:59;;;;;;;2.50;1.00;;;19.70;99.90;;;;;;5069745;28;20127;-95
2021/05/24 11:26:32;;;;;;;3.75;1.00;;;20.30;99.90;;;;;;5070148;28;20505;-89
2021/05/24 11:28:59;;;;;;;4.13;1.65;;;20.40;99.90;;;;;;5069078;28;20033;-90
2021/05/24 11:31:37;;;;;;;3.10;1.23;;;20.70;99.90;;;;;;5071003;28;20040;-86
2021/05/24 11:34:09;;;;;;;2.38;1.25;;;20.70;99.90;;;;;;5071941;28;20139;-95
2021/05/24 11:36:39;;;;;;;1.42;0.95;;;20.50;99.90;;;;;;5068839;28;20036;-89
2021/05/24 11:39:15;;;;;;;3.80;1.33;;;20.40;99.90;;;;;;5051872;28;20033;-89
2021/05/24 11:41:53;;;;;;;2.92;1.48;;;21.10;99.90;;;;;;5069654;28;20036;-87
2021/05/24 11:44:25;;;;;;;3.65;1.30;;;21.10;99.90;;;;;;5069681;28;20039;-88
2021/05/24 11:46:53;;;;;;;1.92;1.05;;;21.20;99.90;;;;;;5071400;28;20428;-89
2021/05/24 11:49:28;;;;;;;2.60;1.08;;;21.40;99.90;;;;;;5063743;28;20060;-89
2021/05/24 11:51:54;;;;;;;2.38;1.10;;;21.40;99.90;;;;;;5057493;28;20033;-89
2021/05/24 11:54:20;;;;;;;2.90;0.90;;;21.10;99.90;;;;;;5070998;28;20036;-89
2021/05/24 11:56:51;;;;;;;2.83;1.33;;;21.10;99.90;;;;;;5072018;28;20025;-89
2021/05/24 11:59:19;;;;;;;2.85;1.00;;;20.80;99.90;;;;;;5069475;28;20040;-89
2021/05/24 12:01:47;;;;;;;3.80;1.27;;;20.80;99.90;;;;;;5070192;28;20043;-89
2021/05/24 12:04:15;;;;;;;2.67;1.00;;;20.60;99.90;;;;;;5072489;28;20021;-89
2021/05/24 12:06:47;;;;;;;2.38;1.02;;;20.60;99.90;;;;;;5073590;28;20078;-89
2021/05/24 12:09:15;;;;;;;1.58;1.00;;;20.30;99.90;;;;;;5075541;28;20056;-89
2021/05/24 12:11:57;;;;;;;2.15;1.23;;;20.40;99.90;;;;;;5075141;28;20098;-90
2021/05/24 12:14:24;;;;;;;2.60;1.20;;;20.40;99.90;;;;;;5073196;28;20037;-88
2021/05/24 12:16:51;;;;;;;2.22;1.20;;;20.20;99.90;;;;;;5075520;28;20031;-89
2021/05/24 12:19:25;;;;;;;3.75;1.27;;;20.00;99.90;;;;;;5075040;28;20028;-88
2021/05/24 12:21:52;;;;;;;4.32;1.35;;;19.70;99.90;;;;;;5074894;28;20078;-89
2021/05/24 12:24:19;;;;;;;2.28;1.20;;;19.60;99.90;;;;;;5074909;28;20024;-89
2021/05/24 12:26:51;;;;;;;4.00;1.23;;;19.70;99.90;;;;;;5072228;28;20090;-89
2021/05/24 12:29:26;;;;;;;1.77;1.10;;;19.50;99.90;;;;;;5072228;28;20032;-88
2021/05/24 12:31:55;;;;;;;3.15;1.10;;;19.30;99.90;;;;;;5073206;28;20452;-89
2021/05/24 12:34:46;;;;;;;2.17;1.20;;;19.00;99.90;;;;;;5074769;28;20042;-89
2021/05/24 12:37:13;;;;;;;2.28;1.23;;;19.10;99.90;;;;;;5072029;28;20025;-89
2021/05/24 12:39:44;;;;;;;3.40;1.38;;;18.90;99.90;;;;;;5070927;28;20033;-89
2021/05/24 12:42:10;;;;;;;2.72;1.30;;;18.90;99.90;;;;;;5073657;28;20103;-89
2021/05/24 12:44:38;;;;;;;2.45;1.27;;;18.90;99.90;;;;;;5071436;28;20115;-89
2021/05/24 12:47:19;;;;;;;1.60;1.35;;;19.00;99.90;;;;;;5072653;28;20082;-89
2021/05/24 12:49:47;;;;;;;4.35;1.42;;;18.50;99.90;;;;;;5072687;28;20027;-89
2021/05/24 12:52:14;;;;;;;2.42;1.13;;;18.80;99.90;;;;;;5071762;28;20115;-89
2021/05/24 12:54:53;;;;;;;2.63;1.38;;;18.90;99.90;;;;;;5071549;28;20028;-89
2021/05/24 12:57:30;;;;;;;3.63;1.15;;;19.00;99.90;;;;;;5069985;28;20025;-89
2021/05/24 12:59:57;;;;;;;2.00;1.20;;;18.90;99.90;;;;;;5071824;28;20074;-89
2021/05/24 13:02:28;;;;;;;3.25;1.27;;;19.10;99.90;;;;;;5071244;28;20090;-89